»·PEaware :: USC243 KASE-KCEZ

USC243 :: KASE-KCEZ

FLIGHT INFORMATION

Flight Status: Arrived
Operator: Unknown
More flights by this operator :: More flights under this callsign
Pilot: Andy P. (22680)
Aircraft: GATES LEARJET LEARJET 35/36
(LJ35)
More flights by this aircraft type
Origin: KASE Aspen-Pitkin Co/Sardy
United States
Destination: KCEZ Cortez Mun
United States
More flights between these airports :: More routes between these airports
Route: +LINDZ9 LINDZ SLOLM MTJ ETL CEZ
File this flight plan on PilotEdge
Remarks:
Altitude:
(Current/Filed)
26,000ft
Speed:
(Current/Filed)
465kts
Departed: 29-Sep-19 03:06 PM
Arrived: 29-Sep-19 03:37 PM
Distance/Time
Traveled:
325nm/0:30
Distance/Time
To Go:
Arrived

Flight Plot

Page will automatically refresh every two minutes.

Flight plan parsing failed; only flown route is shown


Map Options




Map Legend


Flown Route
Filed Route
Departure Airport
Arrival Airport
Navaid (VOR, NDB)
Fix

Horizontal Profiles

Position Reports

Time Latitude Longitude Heading Altitude Ground
Speed
29-Sep-19 14:44 39.222341 -106.866786 251 7822ft 0kts
29-Sep-19 14:45 39.222341 -106.866786 251 7822ft 0kts
29-Sep-19 14:46 39.222341 -106.866786 251 7822ft 0kts
29-Sep-19 14:47 39.222341 -106.866786 251 7822ft 0kts
29-Sep-19 14:48 39.222341 -106.866786 251 7822ft 0kts
29-Sep-19 14:49 39.222341 -106.866786 251 7822ft 0kts
29-Sep-19 14:50 39.222341 -106.866786 251 7822ft 0kts
29-Sep-19 14:51 39.222341 -106.866786 251 7822ft 0kts
29-Sep-19 14:52 39.222341 -106.866786 251 7822ft 0kts
29-Sep-19 14:53 39.222341 -106.866786 251 7822ft 0kts
29-Sep-19 14:54 39.222341 -106.866786 251 7822ft 0kts
29-Sep-19 14:55 39.222341 -106.866786 251 7822ft 0kts
29-Sep-19 14:56 39.222341 -106.866786 251 7822ft 0kts
29-Sep-19 14:57 39.222341 -106.866786 251 7822ft 0kts
29-Sep-19 14:58 39.222077 -106.867126 176 7823ft 10kts
29-Sep-19 14:59 39.216181 -106.864349 155 7823ft 18kts
29-Sep-19 15:00 39.212335 -106.862503 166 7823ft 11kts
29-Sep-19 15:01 39.212268 -106.862483 169 7823ft 0kts
29-Sep-19 15:02 39.212266 -106.862482 169 7823ft 0kts
29-Sep-19 15:03 39.212265 -106.862482 169 7823ft 0kts
29-Sep-19 15:04 39.212245 -106.863658 338 7823ft 33kts
29-Sep-19 15:05 39.249392 -106.879632 344 8654ft 202kts
29-Sep-19 15:06 39.294526 -106.925185 284 11927ft 245kts
29-Sep-19 15:07 39.321023 -107.010708 281 16257ft 272kts
29-Sep-19 15:08 39.358981 -107.104603 300 20111ft 308kts
29-Sep-19 15:09 39.382649 -107.203436 254 22742ft 287kts
29-Sep-19 15:10 39.362855 -107.300870 247 25649ft 284kts
29-Sep-19 15:11 39.340251 -107.407886 249 26112ft 340kts
29-Sep-19 15:13 39.314650 -107.537197 250 26032ft 398kts
29-Sep-19 15:14 39.244831 -107.644395 207 25959ft 414kts
29-Sep-19 15:15 39.131876 -107.683081 201 25938ft 410kts
29-Sep-19 15:16 39.023923 -107.721935 200 25903ft 402kts
29-Sep-19 15:17 38.914413 -107.759971 200 25792ft 413kts
29-Sep-19 15:18 38.802871 -107.798290 199 25800ft 416kts
29-Sep-19 15:19 38.690679 -107.836662 199 25822ft 418kts
29-Sep-19 15:20 38.578161 -107.875017 199 25826ft 420kts
29-Sep-19 15:21 38.469858 -107.927665 214 25831ft 413kts
29-Sep-19 15:22 38.372225 -108.003466 213 24703ft 409kts
29-Sep-19 15:23 38.275510 -108.078108 213 22922ft 393kts
29-Sep-19 15:24 38.184000 -108.148542 213 21263ft 385kts
29-Sep-19 15:25 38.094337 -108.217763 213 19675ft 367kts
29-Sep-19 15:26 38.005623 -108.279141 202 17863ft 368kts
29-Sep-19 15:27 37.906615 -108.307095 204 16594ft 359kts
29-Sep-19 15:28 37.816035 -108.363569 206 15208ft 363kts
29-Sep-19 15:28 37.737726 -108.401800 195 15102ft 361kts
29-Sep-19 15:30 37.639011 -108.447937 202 15054ft 320kts
29-Sep-19 15:31 37.558669 -108.483097 200 12883ft 286kts
29-Sep-19 15:31 37.501766 -108.510708 200 10702ft 247kts
29-Sep-19 15:32 37.438560 -108.537671 200 8536ft 233kts
29-Sep-19 15:34 37.373459 -108.571264 207 7423ft 210kts
29-Sep-19 15:34 37.340102 -108.595853 206 6540ft 135kts
29-Sep-19 15:35 37.310017 -108.620321 220 5936ft 113kts
29-Sep-19 15:36 37.303424 -108.629695 311 5921ft 11kts
29-Sep-19 15:37 37.304218 -108.629927 39 5921ft 0kts
29-Sep-19 15:38 37.304218 -108.629927 39 5921ft 0kts
29-Sep-19 15:39 34.445645 -110.122411 41 5806ft 0kts
29-Sep-19 15:40 34.445965 -110.121990 35 5837ft 30kts
29-Sep-19 15:41 34.458665 -110.108130 46 5855ft 73kts

Navigation Log

Ident Type
Flight plan parsing failed, navigation log unavailable